createdAt,value
2023-02-23T00:01:00.562Z,54.23
2023-02-23T00:03:32.839Z,66.60
2023-02-23T00:06:30.118Z,69.70
2023-02-23T00:12:17.857Z,52.97
2023-02-23T00:14:56.371Z,61.20
2023-02-23T00:17:42.345Z,68.93
2023-02-23T00:20:27.454Z,52.35
2023-02-23T00:22:56.263Z,59.28
2023-02-23T00:25:26.304Z,70.07
2023-02-23T00:27:55.018Z,51.28
2023-02-23T00:30:21.802Z,57.28
2023-02-23T00:32:54.895Z,71.85
2023-02-23T00:35:27.368Z,56.83
2023-02-23T00:40:46.911Z,69.88
2023-02-23T00:43:24.098Z,71.47
2023-02-23T00:45:54.816Z,59.33
2023-02-23T00:48:24.846Z,56.45
2023-02-23T00:51:04.183Z,61.78
2023-02-23T00:53:31.485Z,66.72
2023-02-23T00:55:58.883Z,59.85
2023-02-23T00:58:37.120Z,69.47
2023-02-23T01:01:13.997Z,70.70
2023-02-23T01:03:44.901Z,73.38
2023-02-23T01:06:15.770Z,61.35
2023-02-23T01:08:53.212Z,62.25
2023-02-23T01:11:28.727Z,70.38
2023-02-23T01:13:58.422Z,55.22
2023-02-23T01:16:52.958Z,64.97
2023-02-23T01:19:20.373Z,68.80
2023-02-23T01:22:10.984Z,58.63
2023-02-23T01:24:46.254Z,53.50
2023-02-23T01:27:25.973Z,53.58
2023-02-23T01:29:57.929Z,55.00
2023-02-23T01:32:27.262Z,54.40
2023-02-23T01:34:57.187Z,65.00
2023-02-23T01:37:59.111Z,56.90
2023-02-23T01:40:39.642Z,55.95
2023-02-23T01:43:12.076Z,54.30
2023-02-23T01:48:32.663Z,67.93
2023-02-23T01:51:31.402Z,67.95
2023-02-23T01:54:17.416Z,65.68
2023-02-23T01:57:06.689Z,68.70
2023-02-23T01:59:42.079Z,66.85
2023-02-23T02:02:09.430Z,68.65
2023-02-23T02:04:44.697Z,65.05
2023-02-23T02:07:17.144Z,71.85
2023-02-23T02:10:04.600Z,70.03
2023-02-23T02:12:32.692Z,69.75
2023-02-23T02:15:00.852Z,69.38
2023-02-23T02:17:45.318Z,69.40
2023-02-23T02:20:38.942Z,70.45
2023-02-23T02:23:49.208Z,70.10
2023-02-23T02:26:33.943Z,71.05
2023-02-23T02:29:32.389Z,68.43
2023-02-23T02:32:31.976Z,66.32
2023-02-23T02:35:46.972Z,68.97
2023-02-23T02:38:40.352Z,68.65
2023-02-23T02:42:05.736Z,66.40
2023-02-23T02:44:57.782Z,67.53
2023-02-23T02:47:52.893Z,67.53
2023-02-23T02:50:51.370Z,67.75
2023-02-23T02:53:34.183Z,64.75
2023-02-23T02:56:27.618Z,67.32
2023-02-23T03:01:56.717Z,66.05
2023-02-23T03:04:44.116Z,66.32
2023-02-23T03:08:08.087Z,68.43
2023-02-23T03:11:09.781Z,63.28
2023-02-23T03:14:20.605Z,62.47
2023-02-23T03:17:43.427Z,60.10
2023-02-23T03:20:40.833Z,60.10
2023-02-23T03:23:32.417Z,49.88
2023-02-23T03:26:56.619Z,47.75
2023-02-23T03:30:33.632Z,49.08
2023-02-23T03:36:45.449Z,51.10
2023-02-23T03:42:54.215Z,49.13
2023-02-23T03:45:44.844Z,50.85
2023-02-23T03:48:42.747Z,47.45
2023-02-23T03:51:37.533Z,48.10
2023-02-23T03:54:50.196Z,46.03
2023-02-23T03:57:43.912Z,54.17
2023-02-23T04:00:39.220Z,53.58
2023-02-23T04:03:42.067Z,49.03
2023-02-23T04:06:37.106Z,54.35
2023-02-23T04:09:25.968Z,55.50
2023-02-23T04:12:33.997Z,56.63
2023-02-23T04:15:08.618Z,48.35
2023-02-23T04:17:47.149Z,47.03
2023-02-23T04:20:18.377Z,45.83
2023-02-23T04:22:45.298Z,54.22
2023-02-23T04:25:17.445Z,55.13
2023-02-23T04:27:49.234Z,56.50
2023-02-23T04:30:16.260Z,49.95
2023-02-23T04:32:47.696Z,55.35
2023-02-23T04:35:22.783Z,56.03
2023-02-23T04:37:56.580Z,56.60
2023-02-23T04:40:31.228Z,48.50
2023-02-23T04:43:03.517Z,44.38
2023-02-23T04:45:31.530Z,46.25
2023-02-23T04:48:06.914Z,45.67
2023-02-23T04:50:35.441Z,45.92
2023-02-23T04:53:09.950Z,43.40
2023-02-23T04:55:40.096Z,43.90
2023-02-23T04:58:17.155Z,51.35
2023-02-23T05:00:44.290Z,44.58
2023-02-23T05:03:13.005Z,47.20
2023-02-23T05:05:43.153Z,46.00
2023-02-23T05:08:15.001Z,47.65
2023-02-23T05:10:55.236Z,47.22
2023-02-23T05:13:24.990Z,46.65
2023-02-23T05:15:55.932Z,45.13
2023-02-23T05:18:22.735Z,47.58
2023-02-23T05:21:21.590Z,50.17
2023-02-23T05:23:51.398Z,50.95
2023-02-23T05:26:18.953Z,50.83
2023-02-23T05:28:46.049Z,49.60
2023-02-23T05:31:13.313Z,43.83
2023-02-23T05:33:43.008Z,49.10
2023-02-23T05:36:38.321Z,51.85
2023-02-23T05:39:10.695Z,54.72
2023-02-23T05:41:37.674Z,56.35
2023-02-23T05:44:07.712Z,55.13
2023-02-23T05:46:38.103Z,55.15
2023-02-23T05:49:12.644Z,54.58
2023-02-23T05:51:41.274Z,54.97
2023-02-23T05:54:15.397Z,55.65
2023-02-23T05:56:49.129Z,55.83
2023-02-23T05:59:38.057Z,53.97
2023-02-23T06:02:06.419Z,51.67
2023-02-23T06:04:48.357Z,49.72
2023-02-23T06:07:31.166Z,49.42
2023-02-23T06:12:42.047Z,48.22
2023-02-23T06:15:09.991Z,43.60
2023-02-23T06:17:39.670Z,42.47
2023-02-23T06:20:07.443Z,40.00
2023-02-23T06:22:34.348Z,36.72
2023-02-23T06:25:14.749Z,38.65
2023-02-23T06:27:48.867Z,36.25
2023-02-23T06:30:18.602Z,36.08
2023-02-23T06:32:52.873Z,32.38
2023-02-23T06:35:29.869Z,31.92
2023-02-23T06:38:22.047Z,31.33
2023-02-23T06:40:51.019Z,31.23
2023-02-23T06:43:26.788Z,32.33
2023-02-23T06:45:59.901Z,30.67
2023-02-23T06:48:30.050Z,30.02
2023-02-23T06:51:07.557Z,34.03
2023-02-23T06:53:34.736Z,31.50
2023-02-23T06:56:14.089Z,31.77
2023-02-23T06:58:43.297Z,31.95
2023-02-23T07:01:10.363Z,33.55
2023-02-23T07:03:37.184Z,38.53
2023-02-23T07:06:05.910Z,40.80
2023-02-23T07:08:36.149Z,40.25
2023-02-23T07:11:18.442Z,36.92
2023-02-23T07:13:48.855Z,45.08
2023-02-23T07:16:20.658Z,41.85
2023-02-23T07:18:50.429Z,49.20
2023-02-23T07:21:20.699Z,48.58
2023-02-23T07:23:50.052Z,49.88
2023-02-23T07:26:27.660Z,53.90
2023-02-23T07:29:04.258Z,55.60
2023-02-23T07:31:35.492Z,48.35
2023-02-23T07:34:05.178Z,57.22
2023-02-23T07:36:36.281Z,56.35
2023-02-23T07:39:17.255Z,55.70
2023-02-23T07:41:48.291Z,59.10
2023-02-23T07:44:16.122Z,56.60
2023-02-23T07:46:46.633Z,55.92
2023-02-23T07:49:16.653Z,52.65
2023-02-23T07:52:00.284Z,60.78
2023-02-23T07:54:36.528Z,59.63
2023-02-23T07:57:05.844Z,61.83
2023-02-23T07:59:36.040Z,58.30
2023-02-23T08:02:02.891Z,62.00
2023-02-23T08:04:42.104Z,60.58
2023-02-23T08:07:17.156Z,56.22
2023-02-23T08:09:44.125Z,61.55
2023-02-23T08:12:21.961Z,60.92
2023-02-23T08:14:51.272Z,45.42
2023-02-23T08:17:21.220Z,61.15
2023-02-23T08:19:49.910Z,58.92
2023-02-23T08:22:19.135Z,57.28
2023-02-23T08:24:49.235Z,60.72
2023-02-23T08:27:38.615Z,59.30
2023-02-23T08:30:10.966Z,52.10
2023-02-23T08:32:46.850Z,46.50
2023-02-23T08:35:42.418Z,78.07
2023-02-23T08:38:23.848Z,74.22
2023-02-23T08:41:28.496Z,75.53
2023-02-23T08:44:06.337Z,69.93
2023-02-23T08:46:36.422Z,66.88
2023-02-23T08:49:15.333Z,70.63
2023-02-23T08:51:53.399Z,67.05
2023-02-23T08:54:24.436Z,71.85
2023-02-23T08:59:35.614Z,68.82
2023-02-23T09:02:25.422Z,62.58
2023-02-23T09:05:15.122Z,66.57
2023-02-23T09:07:56.025Z,69.93
2023-02-23T09:10:31.470Z,67.57
2023-02-23T09:13:01.306Z,61.30
2023-02-23T09:15:37.965Z,60.70
2023-02-23T09:18:20.593Z,66.05
2023-02-23T09:21:08.377Z,61.28
2023-02-23T09:23:46.924Z,75.18
2023-02-23T09:26:21.857Z,71.05
2023-02-23T09:31:40.367Z,60.60
2023-02-23T09:37:07.733Z,63.10
2023-02-23T09:39:38.632Z,62.35
2023-02-23T09:42:28.912Z,61.20
2023-02-23T09:45:23.697Z,62.38
2023-02-23T09:48:13.859Z,66.18
2023-02-23T09:50:53.617Z,59.92
2023-02-23T09:53:38.580Z,76.45
2023-02-23T09:56:24.137Z,80.47
2023-02-23T09:58:53.548Z,82.18
2023-02-23T10:01:48.586Z,79.75
2023-02-23T10:05:24.186Z,83.22
2023-02-23T10:08:02.783Z,83.55
2023-02-23T10:10:38.347Z,83.22
2023-02-23T10:13:27.790Z,80.28
2023-02-23T10:16:24.852Z,82.20
2023-02-23T10:19:21.942Z,81.50
2023-02-23T10:22:02.780Z,84.13
2023-02-23T10:25:10.466Z,83.03
2023-02-23T10:27:44.423Z,86.53
2023-02-23T10:30:41.794Z,74.13
2023-02-23T10:33:30.495Z,73.03
2023-02-23T10:38:58.634Z,86.82
2023-02-23T10:41:32.514Z,89.60
2023-02-23T10:44:20.984Z,88.60
2023-02-23T10:50:01.727Z,84.45
2023-02-23T10:52:41.655Z,77.72
2023-02-23T10:55:24.435Z,76.35
2023-02-23T11:01:07.010Z,76.88
2023-02-23T11:03:42.936Z,80.85
2023-02-23T11:06:33.798Z,79.20
2023-02-23T11:09:33.050Z,84.10
2023-02-23T11:12:37.355Z,81.70
2023-02-23T11:15:48.188Z,73.32
2023-02-23T11:18:31.057Z,72.07
2023-02-23T11:21:03.172Z,73.65
2023-02-23T11:23:37.833Z,73.05
2023-02-23T11:26:27.377Z,68.85
2023-02-23T11:29:09.960Z,66.60
2023-02-23T11:31:47.548Z,65.82
2023-02-23T11:34:36.478Z,63.45
2023-02-23T11:37:24.695Z,63.95
2023-02-23T11:40:09.791Z,62.83
2023-02-23T11:42:41.334Z,61.40
2023-02-23T11:45:38.351Z,56.03
2023-02-23T11:48:54.895Z,58.30
2023-02-23T11:51:59.195Z,52.90
2023-02-23T11:54:35.898Z,53.70
2023-02-23T11:57:10.808Z,42.55
2023-02-23T11:59:48.065Z,54.55
2023-02-23T12:02:44.788Z,53.80
2023-02-23T12:05:31.779Z,53.03
2023-02-23T12:08:27.750Z,42.88
2023-02-23T12:11:05.132Z,44.70
2023-02-23T12:14:06.909Z,49.47
2023-02-23T12:16:49.195Z,48.08
2023-02-23T12:19:34.877Z,43.63
2023-02-23T12:22:35.201Z,44.83
2023-02-23T12:25:05.199Z,44.00
2023-02-23T12:28:01.407Z,43.15
2023-02-23T12:30:48.736Z,44.15
2023-02-23T12:33:23.890Z,45.58
2023-02-23T12:36:32.508Z,42.50
2023-02-23T12:41:48.086Z,41.78
2023-02-23T12:44:35.853Z,41.35
2023-02-23T12:47:15.214Z,41.72
2023-02-23T12:49:51.514Z,42.55
2023-02-23T12:52:25.896Z,40.35
2023-02-23T12:55:02.851Z,40.17
2023-02-23T12:57:47.671Z,42.17
2023-02-23T13:00:35.635Z,40.17
2023-02-23T13:03:45.970Z,41.15
2023-02-23T13:06:32.913Z,42.75
2023-02-23T13:09:51.695Z,41.97
2023-02-23T13:12:45.123Z,39.85
2023-02-23T13:15:24.301Z,40.22
2023-02-23T13:18:06.659Z,42.08
2023-02-23T13:20:46.473Z,42.47
2023-02-23T13:24:01.629Z,40.03
2023-02-23T13:26:49.493Z,39.03
2023-02-23T13:29:46.052Z,41.20
2023-02-23T13:32:29.511Z,38.90
2023-02-23T13:35:18.060Z,38.53
2023-02-23T13:38:17.476Z,40.33
2023-02-23T13:41:27.228Z,42.50
2023-02-23T13:44:16.053Z,43.45
2023-02-23T13:47:09.012Z,41.47
2023-02-23T13:50:18.769Z,38.38
2023-02-23T13:52:58.453Z,39.80
2023-02-23T13:55:46.931Z,39.50
2023-02-23T13:58:27.247Z,39.45
2023-02-23T14:01:24.336Z,42.97
2023-02-23T14:04:19.834Z,40.47
2023-02-23T14:07:01.907Z,47.30
2023-02-23T14:09:37.614Z,41.53
2023-02-23T14:12:40.383Z,42.72
2023-02-23T14:15:25.495Z,37.95
2023-02-23T14:18:00.712Z,37.88
2023-02-23T14:20:47.257Z,41.10
2023-02-23T14:23:20.004Z,41.30
2023-02-23T14:26:05.566Z,41.33
2023-02-23T14:28:39.191Z,41.65
2023-02-23T14:31:16.168Z,49.35
2023-02-23T14:33:42.952Z,42.13
2023-02-23T14:36:22.108Z,40.75
2023-02-23T14:39:02.427Z,39.30
2023-02-23T14:41:58.416Z,46.92
2023-02-23T14:44:31.496Z,43.70
2023-02-23T14:47:06.890Z,49.10
2023-02-23T14:49:42.218Z,47.95
2023-02-23T14:52:27.873Z,39.83
2023-02-23T14:55:13.017Z,49.35
2023-02-23T14:57:52.639Z,41.38
2023-02-23T15:00:30.475Z,40.55
2023-02-23T15:06:06.650Z,49.17
2023-02-23T15:08:49.871Z,42.15
2023-02-23T15:11:19.634Z,41.47
2023-02-23T15:13:58.565Z,41.30
2023-02-23T15:16:36.902Z,48.20
2023-02-23T15:19:34.436Z,42.92
2023-02-23T15:22:25.514Z,38.58
2023-02-23T15:25:07.213Z,38.70
2023-02-23T15:27:56.014Z,50.00
2023-02-23T15:30:38.354Z,47.85
2023-02-23T15:33:11.282Z,46.00
2023-02-23T15:36:27.707Z,44.20
2023-02-23T15:39:14.803Z,40.20
2023-02-23T15:41:49.201Z,44.63
2023-02-23T15:44:32.300Z,43.95
2023-02-23T15:47:18.827Z,39.78
2023-02-23T15:49:47.044Z,41.00
2023-02-23T15:56:15.734Z,40.65
2023-02-23T15:59:03.894Z,41.03
2023-02-23T16:02:01.573Z,41.70
2023-02-23T16:04:48.766Z,40.72
2023-02-23T16:07:24.777Z,40.20
2023-02-23T16:10:06.671Z,42.88
2023-02-23T16:12:43.556Z,41.17
2023-02-23T16:15:35.672Z,38.63
2023-02-23T16:18:10.170Z,38.50
2023-02-23T16:20:41.831Z,36.88
2023-02-23T16:23:34.322Z,38.05
2023-02-23T16:29:08.011Z,37.85
2023-02-23T16:31:58.274Z,37.55
2023-02-23T16:35:26.462Z,41.25
2023-02-23T16:38:01.250Z,40.05
2023-02-23T16:40:39.774Z,41.15
2023-02-23T16:43:06.965Z,39.33
2023-02-23T16:45:33.952Z,43.80
2023-02-23T16:48:15.435Z,39.88
2023-02-23T16:51:11.824Z,42.30
2023-02-23T16:53:52.566Z,40.40
2023-02-23T16:56:35.911Z,40.75
2023-02-23T16:59:22.615Z,41.80
2023-02-23T17:02:09.909Z,43.65
2023-02-23T17:04:57.908Z,43.25
2023-02-23T17:07:30.662Z,40.90
2023-02-23T17:10:06.466Z,48.20
2023-02-23T17:12:34.589Z,42.38
2023-02-23T17:15:19.654Z,42.53
2023-02-23T17:17:50.847Z,41.05
2023-02-23T17:20:26.198Z,43.10
2023-02-23T17:23:08.706Z,43.45
2023-02-23T17:25:38.614Z,41.17
2023-02-23T17:28:17.971Z,40.60
2023-02-23T17:31:25.482Z,42.88
2023-02-23T17:34:02.964Z,40.63
2023-02-23T17:36:40.296Z,39.67
2023-02-23T17:41:45.814Z,42.53
2023-02-23T17:44:13.079Z,40.90
2023-02-23T17:46:41.293Z,40.70
2023-02-23T17:49:08.474Z,42.28
2023-02-23T17:51:44.003Z,40.90
2023-02-23T17:54:34.374Z,40.85
2023-02-23T17:57:23.751Z,39.33
2023-02-23T17:59:54.214Z,43.85
2023-02-23T18:02:42.734Z,41.60
2023-02-23T18:05:23.577Z,39.85
2023-02-23T18:07:54.303Z,41.80
2023-02-23T18:10:36.224Z,37.75
2023-02-23T18:13:09.199Z,40.53
2023-02-23T18:15:42.649Z,38.63
2023-02-23T18:18:25.823Z,38.95
2023-02-23T18:21:03.478Z,40.63
2023-02-23T18:23:50.295Z,38.35
2023-02-23T18:26:31.021Z,37.72
2023-02-23T18:29:21.791Z,39.58
2023-02-23T18:31:50.077Z,38.78
2023-02-23T18:34:25.653Z,38.95
2023-02-23T18:36:55.982Z,37.08
2023-02-23T18:39:47.227Z,39.22
2023-02-23T18:42:17.756Z,37.60
2023-02-23T18:44:47.901Z,38.47
2023-02-23T18:47:14.777Z,46.05
2023-02-23T18:49:48.483Z,39.97
2023-02-23T18:52:25.475Z,39.05
2023-02-23T18:57:42.193Z,43.28
2023-02-23T19:00:22.199Z,44.53
2023-02-23T19:02:49.656Z,39.95
2023-02-23T19:05:22.213Z,46.30
2023-02-23T19:07:49.657Z,38.25
2023-02-23T19:10:23.978Z,40.38
2023-02-23T19:12:53.786Z,40.20
2023-02-23T19:15:37.612Z,37.00
2023-02-23T19:18:05.796Z,42.35
2023-02-23T19:20:38.392Z,39.60
2023-02-23T19:25:55.442Z,37.63
2023-02-23T19:28:29.416Z,38.60
2023-02-23T19:31:08.608Z,40.13
2023-02-23T19:33:42.182Z,37.08
2023-02-23T19:36:24.656Z,37.88
2023-02-23T19:41:25.191Z,37.58
2023-02-23T19:43:59.331Z,36.28
2023-02-23T19:46:40.792Z,42.40
2023-02-23T19:52:00.695Z,38.90
2023-02-23T19:54:51.596Z,41.20
2023-02-23T19:57:33.797Z,39.75
2023-02-23T20:00:34.080Z,40.55
2023-02-23T20:05:54.608Z,42.72
2023-02-23T20:08:29.409Z,39.17
2023-02-23T20:11:01.302Z,41.00
2023-02-23T20:14:00.696Z,41.40
2023-02-23T20:17:01.845Z,42.28
2023-02-23T20:19:29.531Z,42.20
2023-02-23T20:21:58.076Z,42.17
2023-02-23T20:24:33.886Z,41.83
2023-02-23T20:29:46.942Z,40.40
2023-02-23T20:32:26.387Z,42.58
2023-02-23T20:34:55.013Z,43.38
2023-02-23T20:37:21.882Z,43.28
2023-02-23T20:40:00.949Z,41.22
2023-02-23T20:42:30.080Z,47.58
2023-02-23T20:44:57.686Z,39.85
2023-02-23T20:47:25.463Z,50.15
2023-02-23T20:49:56.296Z,41.85
2023-02-23T20:55:12.913Z,41.88
2023-02-23T20:57:44.136Z,42.55
2023-02-23T21:00:15.883Z,41.70
2023-02-23T21:02:43.008Z,43.80
2023-02-23T21:05:16.258Z,47.38
2023-02-23T21:07:55.275Z,50.45
2023-02-23T21:10:22.158Z,51.33
2023-02-23T21:12:51.365Z,51.05
2023-02-23T21:15:18.949Z,52.42
2023-02-23T21:17:45.871Z,51.50
2023-02-23T21:20:21.968Z,52.83
2023-02-23T21:22:52.857Z,51.10
2023-02-23T21:25:23.352Z,44.58
2023-02-23T21:27:52.002Z,49.25
2023-02-23T21:30:30.278Z,41.08
2023-02-23T21:33:10.620Z,50.70
2023-02-23T21:35:43.550Z,42.60
2023-02-23T21:38:14.930Z,39.38
2023-02-23T21:40:42.498Z,48.35
2023-02-23T21:43:30.748Z,41.65
2023-02-23T21:46:22.038Z,38.17
2023-02-23T21:48:56.804Z,38.30
2023-02-23T21:51:38.704Z,42.75
2023-02-23T21:54:17.828Z,45.80
2023-02-23T21:56:55.916Z,49.97
2023-02-23T21:59:22.772Z,51.72
2023-02-23T22:02:08.239Z,46.15
2023-02-23T22:04:51.245Z,53.97
2023-02-23T22:07:32.174Z,52.72
2023-02-23T22:09:59.378Z,52.42
2023-02-23T22:12:29.052Z,51.60
2023-02-23T22:14:58.517Z,50.58
2023-02-23T22:17:28.537Z,51.20
2023-02-23T22:20:10.492Z,44.90
2023-02-23T22:22:50.657Z,51.17
2023-02-23T22:25:21.592Z,51.25
2023-02-23T22:27:48.436Z,52.92
2023-02-23T22:30:18.803Z,55.40
2023-02-23T22:32:46.548Z,54.03
2023-02-23T22:38:29.247Z,54.10
2023-02-23T22:41:05.325Z,52.95
2023-02-23T22:43:43.309Z,51.10
2023-02-23T22:46:18.550Z,44.67
2023-02-23T22:48:51.342Z,42.83
2023-02-23T22:51:31.604Z,45.17
2023-02-23T22:54:30.868Z,43.08
2023-02-23T22:56:59.450Z,43.65
2023-02-23T22:59:31.994Z,51.15
2023-02-23T23:04:36.890Z,47.42
2023-02-23T23:07:16.032Z,50.10
2023-02-23T23:09:48.949Z,42.30
2023-02-23T23:12:51.084Z,48.60
2023-02-23T23:15:22.195Z,49.07
2023-02-23T23:17:50.138Z,48.97
2023-02-23T23:20:29.721Z,40.92
2023-02-23T23:22:57.462Z,47.70
2023-02-23T23:28:15.649Z,46.67
2023-02-23T23:30:55.960Z,47.33
2023-02-23T23:33:26.833Z,46.55
2023-02-23T23:35:57.538Z,46.78
2023-02-23T23:38:58.230Z,47.35
2023-02-23T23:41:49.665Z,48.28
2023-02-23T23:44:31.072Z,42.53
2023-02-23T23:46:58.535Z,48.42
2023-02-23T23:49:32.785Z,49.30
2023-02-23T23:52:28.227Z,48.65
2023-02-23T23:57:35.663Z,47.63
